sensor_id;sensor_type;location;lat;lon;timestamp;temperature;humidity
33955;DHT22;20233;50.804;7.126;2022-09-09T00:04:41;18.10;99.90
33955;DHT22;20233;50.804;7.126;2022-09-09T00:09:59;18.00;99.90
33955;DHT22;20233;50.804;7.126;2022-09-09T00:12:47;18.00;99.90
33955;DHT22;20233;50.804;7.126;2022-09-09T00:15:25;18.00;99.90
33955;DHT22;20233;50.804;7.126;2022-09-09T00:18:01;18.00;99.90
33955;DHT22;20233;50.804;7.126;2022-09-09T00:20:34;18.00;99.90
33955;DHT22;20233;50.804;7.126;2022-09-09T00:28:30;18.00;99.90
33955;DHT22;20233;50.804;7.126;2022-09-09T00:31:11;17.90;99.90
33955;DHT22;20233;50.804;7.126;2022-09-09T00:33:38;17.90;99.90
33955;DHT22;20233;50.804;7.126;2022-09-09T00:36:14;17.90;99.90
33955;DHT22;20233;50.804;7.126;2022-09-09T00:38:45;17.90;99.90
33955;DHT22;20233;50.804;7.126;2022-09-09T00:41:21;17.90;99.90
33955;DHT22;20233;50.804;7.126;2022-09-09T00:52:10;17.70;99.90
33955;DHT22;20233;50.804;7.126;2022-09-09T00:57:32;17.70;99.90
33955;DHT22;20233;50.804;7.126;2022-09-09T01:11:49;17.70;99.90
33955;DHT22;20233;50.804;7.126;2022-09-09T01:17:23;17.70;99.90
33955;DHT22;20233;50.804;7.126;2022-09-09T01:22:42;17.70;99.90
33955;DHT22;20233;50.804;7.126;2022-09-09T01:28:11;17.60;99.90
33955;DHT22;20233;50.804;7.126;2022-09-09T01:30:40;17.60;99.90
33955;DHT22;20233;50.804;7.126;2022-09-09T01:33:14;17.60;99.90
33955;DHT22;20233;50.804;7.126;2022-09-09T01:35:57;17.60;99.90
33955;DHT22;20233;50.804;7.126;2022-09-09T01:38:26;17.60;99.90
33955;DHT22;20233;50.804;7.126;2022-09-09T01:40:53;17.60;99.90
33955;DHT22;20233;50.804;7.126;2022-09-09T01:43:21;17.60;99.90
33955;DHT22;20233;50.804;7.126;2022-09-09T01:45:49;17.60;99.90
33955;DHT22;20233;50.804;7.126;2022-09-09T01:48:18;17.60;99.90
33955;DHT22;20233;50.804;7.126;2022-09-09T01:50:44;17.60;99.90
33955;DHT22;20233;50.804;7.126;2022-09-09T01:53:10;17.60;99.90
33955;DHT22;20233;50.804;7.126;2022-09-09T01:55:42;17.60;99.90
33955;DHT22;20233;50.804;7.126;2022-09-09T02:01:27;17.70;99.90
33955;DHT22;20233;50.804;7.126;2022-09-09T02:03:57;17.70;99.90
33955;DHT22;20233;50.804;7.126;2022-09-09T02:06:36;17.70;99.90
33955;DHT22;20233;50.804;7.126;2022-09-09T02:09:05;17.70;99.90
33955;DHT22;20233;50.804;7.126;2022-09-09T02:11:32;17.70;99.90
33955;DHT22;20233;50.804;7.126;2022-09-09T02:14:01;17.70;99.90
33955;DHT22;20233;50.804;7.126;2022-09-09T02:19:06;17.70;99.90
33955;DHT22;20233;50.804;7.126;2022-09-09T02:21:34;17.70;99.90
33955;DHT22;20233;50.804;7.126;2022-09-09T02:24:03;17.70;99.90
33955;DHT22;20233;50.804;7.126;2022-09-09T02:26:31;17.70;99.90
33955;DHT22;20233;50.804;7.126;2022-09-09T02:29:01;17.70;99.90
33955;DHT22;20233;50.804;7.126;2022-09-09T02:31:28;17.70;99.90
33955;DHT22;20233;50.804;7.126;2022-09-09T02:33:56;17.60;99.90
33955;DHT22;20233;50.804;7.126;2022-09-09T02:36:24;17.60;99.90
33955;DHT22;20233;50.804;7.126;2022-09-09T02:38:52;17.70;99.90
33955;DHT22;20233;50.804;7.126;2022-09-09T02:41:33;17.70;99.90
33955;DHT22;20233;50.804;7.126;2022-09-09T02:43:59;17.70;99.90
33955;DHT22;20233;50.804;7.126;2022-09-09T02:49:17;17.70;99.90
33955;DHT22;20233;50.804;7.126;2022-09-09T02:56:46;17.80;99.90
33955;DHT22;20233;50.804;7.126;2022-09-09T02:59:12;17.80;99.90
33955;DHT22;20233;50.804;7.126;2022-09-09T03:01:38;17.80;99.90
33955;DHT22;20233;50.804;7.126;2022-09-09T03:04:05;17.80;99.90
33955;DHT22;20233;50.804;7.126;2022-09-09T03:06:31;17.80;99.90
33955;DHT22;20233;50.804;7.126;2022-09-09T03:08:56;17.90;99.90
33955;DHT22;20233;50.804;7.126;2022-09-09T03:11:22;17.80;99.90
33955;DHT22;20233;50.804;7.126;2022-09-09T03:13:48;17.80;99.90
33955;DHT22;20233;50.804;7.126;2022-09-09T03:16:14;17.80;99.90
33955;DHT22;20233;50.804;7.126;2022-09-09T03:18:40;17.90;99.90
33955;DHT22;20233;50.804;7.126;2022-09-09T03:21:05;17.90;99.90
33955;DHT22;20233;50.804;7.126;2022-09-09T03:23:32;17.80;99.90
33955;DHT22;20233;50.804;7.126;2022-09-09T03:25:57;17.90;99.90
33955;DHT22;20233;50.804;7.126;2022-09-09T03:28:24;17.90;99.90
33955;DHT22;20233;50.804;7.126;2022-09-09T03:31:00;17.90;99.90
33955;DHT22;20233;50.804;7.126;2022-09-09T03:33:26;17.90;99.90
33955;DHT22;20233;50.804;7.126;2022-09-09T03:35:53;17.90;99.90
33955;DHT22;20233;50.804;7.126;2022-09-09T03:38:18;17.80;99.90
33955;DHT22;20233;50.804;7.126;2022-09-09T03:40:55;17.80;99.90
33955;DHT22;20233;50.804;7.126;2022-09-09T03:43:23;17.90;99.90
33955;DHT22;20233;50.804;7.126;2022-09-09T03:45:49;17.90;99.90
33955;DHT22;20233;50.804;7.126;2022-09-09T03:48:16;17.90;99.90
33955;DHT22;20233;50.804;7.126;2022-09-09T03:50:46;17.90;99.90
33955;DHT22;20233;50.804;7.126;2022-09-09T03:53:11;17.80;99.90
33955;DHT22;20233;50.804;7.126;2022-09-09T03:55:37;17.80;99.90
33955;DHT22;20233;50.804;7.126;2022-09-09T03:58:02;17.90;99.90
33955;DHT22;20233;50.804;7.126;2022-09-09T04:00:28;17.90;99.90
33955;DHT22;20233;50.804;7.126;2022-09-09T04:02:55;17.90;99.90
33955;DHT22;20233;50.804;7.126;2022-09-09T04:05:22;17.90;99.90
33955;DHT22;20233;50.804;7.126;2022-09-09T04:07:48;17.90;99.90
33955;DHT22;20233;50.804;7.126;2022-09-09T04:10:14;17.90;99.90
33955;DHT22;20233;50.804;7.126;2022-09-09T04:12:41;17.90;99.90
33955;DHT22;20233;50.804;7.126;2022-09-09T04:15:06;17.80;99.90
33955;DHT22;20233;50.804;7.126;2022-09-09T04:17:32;17.90;99.90
33955;DHT22;20233;50.804;7.126;2022-09-09T04:19:58;17.90;99.90
33955;DHT22;20233;50.804;7.126;2022-09-09T04:22:24;17.80;99.90
33955;DHT22;20233;50.804;7.126;2022-09-09T04:24:49;17.80;99.90
33955;DHT22;20233;50.804;7.126;2022-09-09T04:27:15;17.80;99.90
33955;DHT22;20233;50.804;7.126;2022-09-09T04:29:40;17.90;99.90
33955;DHT22;20233;50.804;7.126;2022-09-09T04:32:06;17.90;99.90
33955;DHT22;20233;50.804;7.126;2022-09-09T04:34:31;17.90;99.90
33955;DHT22;20233;50.804;7.126;2022-09-09T04:36:58;17.90;99.90
33955;DHT22;20233;50.804;7.126;2022-09-09T04:39:24;17.80;99.90
33955;DHT22;20233;50.804;7.126;2022-09-09T04:41:49;17.80;99.90
33955;DHT22;20233;50.804;7.126;2022-09-09T04:44:15;17.80;99.90
33955;DHT22;20233;50.804;7.126;2022-09-09T04:46:41;17.80;99.90
33955;DHT22;20233;50.804;7.126;2022-09-09T04:49:06;17.80;99.90
33955;DHT22;20233;50.804;7.126;2022-09-09T04:51:32;17.80;99.90
33955;DHT22;20233;50.804;7.126;2022-09-09T04:53:58;17.80;99.90
33955;DHT22;20233;50.804;7.126;2022-09-09T04:56:23;17.80;99.90
33955;DHT22;20233;50.804;7.126;2022-09-09T04:58:52;17.80;99.90
33955;DHT22;20233;50.804;7.126;2022-09-09T05:01:19;17.80;99.90
33955;DHT22;20233;50.804;7.126;2022-09-09T05:03:47;17.80;99.90
33955;DHT22;20233;50.804;7.126;2022-09-09T05:06:15;17.80;99.90
33955;DHT22;20233;50.804;7.126;2022-09-09T05:08:41;17.80;99.90
33955;DHT22;20233;50.804;7.126;2022-09-09T05:11:25;17.80;99.90
33955;DHT22;20233;50.804;7.126;2022-09-09T05:13:52;17.80;99.90
33955;DHT22;20233;50.804;7.126;2022-09-09T05:16:19;17.80;99.90
33955;DHT22;20233;50.804;7.126;2022-09-09T05:18:45;17.70;99.90
33955;DHT22;20233;50.804;7.126;2022-09-09T05:21:16;17.80;99.90
33955;DHT22;20233;50.804;7.126;2022-09-09T05:23:42;17.80;99.90
33955;DHT22;20233;50.804;7.126;2022-09-09T05:26:11;17.80;99.90
33955;DHT22;20233;50.804;7.126;2022-09-09T05:28:37;17.70;99.90
33955;DHT22;20233;50.804;7.126;2022-09-09T05:31:05;17.80;99.90
33955;DHT22;20233;50.804;7.126;2022-09-09T05:33:34;17.70;99.90
33955;DHT22;20233;50.804;7.126;2022-09-09T05:36:05;17.70;99.90
33955;DHT22;20233;50.804;7.126;2022-09-09T05:38:31;17.80;99.90
33955;DHT22;20233;50.804;7.126;2022-09-09T05:40:58;17.70;99.90
33955;DHT22;20233;50.804;7.126;2022-09-09T05:43:25;17.70;99.90
33955;DHT22;20233;50.804;7.126;2022-09-09T05:46:01;17.70;99.90
33955;DHT22;20233;50.804;7.126;2022-09-09T05:48:31;17.70;99.90
33955;DHT22;20233;50.804;7.126;2022-09-09T05:50:58;17.70;99.90
33955;DHT22;20233;50.804;7.126;2022-09-09T05:53:24;17.70;99.90
33955;DHT22;20233;50.804;7.126;2022-09-09T05:55:57;17.60;99.90
33955;DHT22;20233;50.804;7.126;2022-09-09T05:58:22;17.70;99.90
33955;DHT22;20233;50.804;7.126;2022-09-09T06:00:49;17.70;99.90
33955;DHT22;20233;50.804;7.126;2022-09-09T06:03:15;17.70;99.90
33955;DHT22;20233;50.804;7.126;2022-09-09T06:05:42;17.70;99.90
33955;DHT22;20233;50.804;7.126;2022-09-09T06:08:07;17.70;99.90
33955;DHT22;20233;50.804;7.126;2022-09-09T06:10:33;17.80;99.90
33955;DHT22;20233;50.804;7.126;2022-09-09T06:12:59;17.80;99.90
33955;DHT22;20233;50.804;7.126;2022-09-09T06:15:24;17.90;99.90
33955;DHT22;20233;50.804;7.126;2022-09-09T06:17:56;17.90;99.90
33955;DHT22;20233;50.804;7.126;2022-09-09T06:20:22;18.00;99.90
33955;DHT22;20233;50.804;7.126;2022-09-09T06:22:48;18.00;99.90
33955;DHT22;20233;50.804;7.126;2022-09-09T06:25:14;18.00;99.90
33955;DHT22;20233;50.804;7.126;2022-09-09T06:27:40;18.10;99.90
33955;DHT22;20233;50.804;7.126;2022-09-09T06:30:06;18.10;99.90
33955;DHT22;20233;50.804;7.126;2022-09-09T06:32:32;18.20;99.90
33955;DHT22;20233;50.804;7.126;2022-09-09T06:35:00;18.20;99.90
33955;DHT22;20233;50.804;7.126;2022-09-09T06:37:26;18.30;99.90
33955;DHT22;20233;50.804;7.126;2022-09-09T06:39:52;18.30;99.90
33955;DHT22;20233;50.804;7.126;2022-09-09T06:42:20;18.30;99.90
33955;DHT22;20233;50.804;7.126;2022-09-09T06:44:45;18.30;99.90
33955;DHT22;20233;50.804;7.126;2022-09-09T06:47:11;18.30;99.90
33955;DHT22;20233;50.804;7.126;2022-09-09T06:49:36;18.30;99.90
33955;DHT22;20233;50.804;7.126;2022-09-09T06:52:02;18.30;99.90
33955;DHT22;20233;50.804;7.126;2022-09-09T06:54:27;18.30;99.90
33955;DHT22;20233;50.804;7.126;2022-09-09T06:56:53;18.40;99.90
33955;DHT22;20233;50.804;7.126;2022-09-09T06:59:19;18.40;99.90
33955;DHT22;20233;50.804;7.126;2022-09-09T07:01:45;18.30;99.90
33955;DHT22;20233;50.804;7.126;2022-09-09T07:04:12;18.30;99.90
33955;DHT22;20233;50.804;7.126;2022-09-09T07:06:41;18.30;99.90
33955;DHT22;20233;50.804;7.126;2022-09-09T07:09:10;18.30;99.90
33955;DHT22;20233;50.804;7.126;2022-09-09T07:11:45;18.30;99.90
33955;DHT22;20233;50.804;7.126;2022-09-09T07:14:12;18.30;99.90
33955;DHT22;20233;50.804;7.126;2022-09-09T07:16:39;18.20;99.90
33955;DHT22;20233;50.804;7.126;2022-09-09T07:19:05;18.30;99.90
33955;DHT22;20233;50.804;7.126;2022-09-09T07:21:32;18.30;99.90
33955;DHT22;20233;50.804;7.126;2022-09-09T07:23:57;18.30;99.90
33955;DHT22;20233;50.804;7.126;2022-09-09T07:26:26;18.30;99.90
33955;DHT22;20233;50.804;7.126;2022-09-09T07:28:52;18.50;99.90
33955;DHT22;20233;50.804;7.126;2022-09-09T07:31:24;18.50;99.90
33955;DHT22;20233;50.804;7.126;2022-09-09T07:33:50;18.60;99.90
33955;DHT22;20233;50.804;7.126;2022-09-09T07:36:21;18.60;99.90
33955;DHT22;20233;50.804;7.126;2022-09-09T07:38:52;18.70;99.90
33955;DHT22;20233;50.804;7.126;2022-09-09T07:41:21;18.80;99.90
33955;DHT22;20233;50.804;7.126;2022-09-09T07:43:49;18.90;99.90
33955;DHT22;20233;50.804;7.126;2022-09-09T07:46:16;19.00;99.90
33955;DHT22;20233;50.804;7.126;2022-09-09T07:48:50;19.10;99.90
33955;DHT22;20233;50.804;7.126;2022-09-09T07:51:22;19.20;99.90
33955;DHT22;20233;50.804;7.126;2022-09-09T07:53:51;19.20;99.90
33955;DHT22;20233;50.804;7.126;2022-09-09T07:56:18;19.30;99.90
33955;DHT22;20233;50.804;7.126;2022-09-09T07:58:47;19.30;99.90
33955;DHT22;20233;50.804;7.126;2022-09-09T08:01:16;19.30;99.90
33955;DHT22;20233;50.804;7.126;2022-09-09T08:03:43;19.30;99.90
33955;DHT22;20233;50.804;7.126;2022-09-09T08:06:10;19.30;99.90
33955;DHT22;20233;50.804;7.126;2022-09-09T08:08:37;19.40;99.90
33955;DHT22;20233;50.804;7.126;2022-09-09T08:11:13;19.40;99.90
33955;DHT22;20233;50.804;7.126;2022-09-09T08:13:43;19.40;99.90
33955;DHT22;20233;50.804;7.126;2022-09-09T08:16:19;19.40;99.90
33955;DHT22;20233;50.804;7.126;2022-09-09T08:18:47;19.50;99.90
33955;DHT22;20233;50.804;7.126;2022-09-09T08:21:16;19.50;99.90
33955;DHT22;20233;50.804;7.126;2022-09-09T08:23:44;19.60;99.90
33955;DHT22;20233;50.804;7.126;2022-09-09T08:26:19;19.60;99.90
33955;DHT22;20233;50.804;7.126;2022-09-09T08:28:49;19.70;99.90
33955;DHT22;20233;50.804;7.126;2022-09-09T08:31:19;19.70;99.90
33955;DHT22;20233;50.804;7.126;2022-09-09T08:33:46;19.80;99.90
33955;DHT22;20233;50.804;7.126;2022-09-09T08:36:17;19.80;99.90
33955;DHT22;20233;50.804;7.126;2022-09-09T08:38:43;19.90;99.90
33955;DHT22;20233;50.804;7.126;2022-09-09T08:44:23;20.00;99.90
33955;DHT22;20233;50.804;7.126;2022-09-09T08:49:48;20.00;99.90
33955;DHT22;20233;50.804;7.126;2022-09-09T08:54:49;20.00;99.90
33955;DHT22;20233;50.804;7.126;2022-09-09T08:57:21;20.10;99.90
33955;DHT22;20233;50.804;7.126;2022-09-09T08:59:52;20.20;99.90
33955;DHT22;20233;50.804;7.126;2022-09-09T09:02:26;20.30;99.90
33955;DHT22;20233;50.804;7.126;2022-09-09T09:05:12;20.30;99.90
33955;DHT22;20233;50.804;7.126;2022-09-09T09:08:02;20.40;99.90
33955;DHT22;20233;50.804;7.126;2022-09-09T09:10:48;20.40;99.90
33955;DHT22;20233;50.804;7.126;2022-09-09T09:13:20;20.50;99.90
33955;DHT22;20233;50.804;7.126;2022-09-09T09:16:00;20.60;99.90
33955;DHT22;20233;50.804;7.126;2022-09-09T09:18:27;20.60;99.90
33955;DHT22;20233;50.804;7.126;2022-09-09T09:21:25;20.70;99.90
33955;DHT22;20233;50.804;7.126;2022-09-09T09:23:57;20.70;99.90
33955;DHT22;20233;50.804;7.126;2022-09-09T09:26:31;20.70;99.90
33955;DHT22;20233;50.804;7.126;2022-09-09T09:28:59;20.80;99.90
33955;DHT22;20233;50.804;7.126;2022-09-09T09:31:26;20.70;99.90
33955;DHT22;20233;50.804;7.126;2022-09-09T09:33:55;20.70;99.90
33955;DHT22;20233;50.804;7.126;2022-09-09T09:36:45;20.60;99.90
33955;DHT22;20233;50.804;7.126;2022-09-09T09:39:31;20.50;99.90
33955;DHT22;20233;50.804;7.126;2022-09-09T09:42:10;20.60;99.90
33955;DHT22;20233;50.804;7.126;2022-09-09T09:44:39;20.70;99.90
33955;DHT22;20233;50.804;7.126;2022-09-09T09:49:32;20.90;99.90
33955;DHT22;20233;50.804;7.126;2022-09-09T09:52:05;21.00;99.90
33955;DHT22;20233;50.804;7.126;2022-09-09T09:54:38;21.10;99.90
33955;DHT22;20233;50.804;7.126;2022-09-09T09:57:12;21.20;99.90
33955;DHT22;20233;50.804;7.126;2022-09-09T09:59:38;21.20;99.90
33955;DHT22;20233;50.804;7.126;2022-09-09T10:02:31;21.20;99.90
33955;DHT22;20233;50.804;7.126;2022-09-09T10:08:13;21.30;99.90
33955;DHT22;20233;50.804;7.126;2022-09-09T10:13:47;21.50;99.90
33955;DHT22;20233;50.804;7.126;2022-09-09T10:19:06;21.80;99.90
33955;DHT22;20233;50.804;7.126;2022-09-09T10:26:48;22.20;99.90
33955;DHT22;20233;50.804;7.126;2022-09-09T10:32:29;22.10;99.90
33955;DHT22;20233;50.804;7.126;2022-09-09T10:43:45;21.80;99.90
33955;DHT22;20233;50.804;7.126;2022-09-09T10:49:21;21.90;99.90
33955;DHT22;20233;50.804;7.126;2022-09-09T10:52:17;22.00;99.90
33955;DHT22;20233;50.804;7.126;2022-09-09T10:55:11;22.00;99.90
33955;DHT22;20233;50.804;7.126;2022-09-09T10:57:48;22.20;99.90
33955;DHT22;20233;50.804;7.126;2022-09-09T11:03:02;22.20;99.90
33955;DHT22;20233;50.804;7.126;2022-09-09T11:05:39;22.40;99.90
33955;DHT22;20233;50.804;7.126;2022-09-09T11:08:12;22.60;99.90
33955;DHT22;20233;50.804;7.126;2022-09-09T11:10:47;22.60;99.90
33955;DHT22;20233;50.804;7.126;2022-09-09T11:13:36;22.60;99.90
33955;DHT22;20233;50.804;7.126;2022-09-09T11:19:04;22.70;99.90
33955;DHT22;20233;50.804;7.126;2022-09-09T11:21:42;22.60;99.90
33955;DHT22;20233;50.804;7.126;2022-09-09T11:24:13;22.60;99.90
33955;DHT22;20233;50.804;7.126;2022-09-09T11:26:57;22.50;99.90
33955;DHT22;20233;50.804;7.126;2022-09-09T11:29:52;22.50;99.90
33955;DHT22;20233;50.804;7.126;2022-09-09T11:32:39;22.60;99.90
33955;DHT22;20233;50.804;7.126;2022-09-09T11:38:26;22.80;99.90
33955;DHT22;20233;50.804;7.126;2022-09-09T11:41:03;22.80;99.90
33955;DHT22;20233;50.804;7.126;2022-09-09T11:43:43;22.70;99.90
33955;DHT22;20233;50.804;7.126;2022-09-09T11:46:10;22.70;99.90
33955;DHT22;20233;50.804;7.126;2022-09-09T11:48:40;22.60;99.90
33955;DHT22;20233;50.804;7.126;2022-09-09T11:51:27;22.70;99.90
33955;DHT22;20233;50.804;7.126;2022-09-09T11:56:43;22.60;99.90
33955;DHT22;20233;50.804;7.126;2022-09-09T11:59:28;22.70;99.90
33955;DHT22;20233;50.804;7.126;2022-09-09T12:02:18;22.70;99.90
33955;DHT22;20233;50.804;7.126;2022-09-09T12:05:09;22.70;99.90
33955;DHT22;20233;50.804;7.126;2022-09-09T12:07:41;22.80;99.90
33955;DHT22;20233;50.804;7.126;2022-09-09T12:12:37;23.00;99.90
33955;DHT22;20233;50.804;7.126;2022-09-09T12:28:01;23.10;99.90
33955;DHT22;20233;50.804;7.126;2022-09-09T12:30:31;23.10;99.90
33955;DHT22;20233;50.804;7.126;2022-09-09T12:33:10;23.20;99.90
33955;DHT22;20233;50.804;7.126;2022-09-09T12:35:38;23.20;99.90
33955;DHT22;20233;50.804;7.126;2022-09-09T12:38:05;23.20;99.90
33955;DHT22;20233;50.804;7.126;2022-09-09T12:40:36;23.20;99.90
33955;DHT22;20233;50.804;7.126;2022-09-09T12:43:19;23.00;99.90
33955;DHT22;20233;50.804;7.126;2022-09-09T12:45:46;22.90;99.90
33955;DHT22;20233;50.804;7.126;2022-09-09T12:48:18;22.90;99.90
33955;DHT22;20233;50.804;7.126;2022-09-09T12:50:48;22.80;99.90
33955;DHT22;20233;50.804;7.126;2022-09-09T12:53:24;22.80;99.90
33955;DHT22;20233;50.804;7.126;2022-09-09T12:55:58;22.80;99.90
33955;DHT22;20233;50.804;7.126;2022-09-09T12:58:25;22.80;99.90
33955;DHT22;20233;50.804;7.126;2022-09-09T13:00:55;22.80;99.90
33955;DHT22;20233;50.804;7.126;2022-09-09T13:03:24;22.80;99.90
33955;DHT22;20233;50.804;7.126;2022-09-09T13:05:53;22.80;99.90
33955;DHT22;20233;50.804;7.126;2022-09-09T13:08:20;22.80;99.90
33955;DHT22;20233;50.804;7.126;2022-09-09T13:10:52;22.70;99.90
33955;DHT22;20233;50.804;7.126;2022-09-09T13:13:23;22.50;99.90
33955;DHT22;20233;50.804;7.126;2022-09-09T13:15:56;22.50;99.90
33955;DHT22;20233;50.804;7.126;2022-09-09T13:18:27;22.50;99.90
33955;DHT22;20233;50.804;7.126;2022-09-09T13:20:54;22.30;99.90
33955;DHT22;20233;50.804;7.126;2022-09-09T13:23:21;22.30;99.90
33955;DHT22;20233;50.804;7.126;2022-09-09T13:25:55;22.40;99.90
33955;DHT22;20233;50.804;7.126;2022-09-09T13:28:23;22.40;99.90
33955;DHT22;20233;50.804;7.126;2022-09-09T13:31:29;22.50;99.90
33955;DHT22;20233;50.804;7.126;2022-09-09T13:33:55;22.60;99.90
33955;DHT22;20233;50.804;7.126;2022-09-09T13:36:32;22.60;99.90
33955;DHT22;20233;50.804;7.126;2022-09-09T13:38:59;22.70;99.90
33955;DHT22;20233;50.804;7.126;2022-09-09T13:41:32;22.60;99.90
33955;DHT22;20233;50.804;7.126;2022-09-09T13:43:59;22.60;99.90
33955;DHT22;20233;50.804;7.126;2022-09-09T13:46:36;22.80;99.90
33955;DHT22;20233;50.804;7.126;2022-09-09T13:49:19;23.00;99.90
33955;DHT22;20233;50.804;7.126;2022-09-09T13:51:48;23.20;99.90
33955;DHT22;20233;50.804;7.126;2022-09-09T13:54:18;23.30;99.90
33955;DHT22;20233;50.804;7.126;2022-09-09T13:56:44;23.30;99.90
33955;DHT22;20233;50.804;7.126;2022-09-09T13:59:19;23.20;99.90
33955;DHT22;20233;50.804;7.126;2022-09-09T14:01:45;23.10;99.90
33955;DHT22;20233;50.804;7.126;2022-09-09T14:04:11;23.00;99.90
33955;DHT22;20233;50.804;7.126;2022-09-09T14:06:37;23.10;99.90
33955;DHT22;20233;50.804;7.126;2022-09-09T14:09:05;23.00;99.90
33955;DHT22;20233;50.804;7.126;2022-09-09T14:11:31;23.00;99.90
33955;DHT22;20233;50.804;7.126;2022-09-09T14:13:56;23.10;99.90
33955;DHT22;20233;50.804;7.126;2022-09-09T14:16:22;23.10;99.90
33955;DHT22;20233;50.804;7.126;2022-09-09T14:18:48;23.10;99.90
33955;DHT22;20233;50.804;7.126;2022-09-09T14:21:13;23.10;99.90
33955;DHT22;20233;50.804;7.126;2022-09-09T14:23:41;23.10;99.90
33955;DHT22;20233;50.804;7.126;2022-09-09T14:26:07;23.10;99.90
33955;DHT22;20233;50.804;7.126;2022-09-09T14:28:33;23.10;99.90
33955;DHT22;20233;50.804;7.126;2022-09-09T14:31:03;23.00;99.90
33955;DHT22;20233;50.804;7.126;2022-09-09T14:33:29;23.10;99.90
33955;DHT22;20233;50.804;7.126;2022-09-09T14:36:03;23.10;99.90
33955;DHT22;20233;50.804;7.126;2022-09-09T14:38:29;23.20;99.90
33955;DHT22;20233;50.804;7.126;2022-09-09T14:40:55;23.20;99.90
33955;DHT22;20233;50.804;7.126;2022-09-09T14:43:21;23.20;99.90
33955;DHT22;20233;50.804;7.126;2022-09-09T14:45:47;23.20;99.90
33955;DHT22;20233;50.804;7.126;2022-09-09T14:48:17;23.20;99.90
33955;DHT22;20233;50.804;7.126;2022-09-09T14:50:42;23.20;99.90
33955;DHT22;20233;50.804;7.126;2022-09-09T14:53:08;23.20;99.90
33955;DHT22;20233;50.804;7.126;2022-09-09T14:55:36;23.10;99.90
33955;DHT22;20233;50.804;7.126;2022-09-09T14:58:02;23.20;99.90
33955;DHT22;20233;50.804;7.126;2022-09-09T15:00:28;23.30;99.90
33955;DHT22;20233;50.804;7.126;2022-09-09T15:02:54;23.30;99.90
33955;DHT22;20233;50.804;7.126;2022-09-09T15:05:20;23.30;99.90
33955;DHT22;20233;50.804;7.126;2022-09-09T15:07:46;23.20;99.90
33955;DHT22;20233;50.804;7.126;2022-09-09T15:10:14;23.10;99.90
33955;DHT22;20233;50.804;7.126;2022-09-09T15:12:39;23.00;99.90
33955;DHT22;20233;50.804;7.126;2022-09-09T15:15:07;22.90;99.90
33955;DHT22;20233;50.804;7.126;2022-09-09T15:17:32;22.80;99.90
33955;DHT22;20233;50.804;7.126;2022-09-09T15:19:58;22.80;99.90
33955;DHT22;20233;50.804;7.126;2022-09-09T15:22:24;22.80;99.90
33955;DHT22;20233;50.804;7.126;2022-09-09T15:24:50;22.70;99.90
33955;DHT22;20233;50.804;7.126;2022-09-09T15:27:15;22.70;99.90
33955;DHT22;20233;50.804;7.126;2022-09-09T15:29:41;22.60;99.90
33955;DHT22;20233;50.804;7.126;2022-09-09T15:32:07;22.20;99.90
33955;DHT22;20233;50.804;7.126;2022-09-09T15:34:33;22.00;99.90
33955;DHT22;20233;50.804;7.126;2022-09-09T15:36:58;22.00;99.90
33955;DHT22;20233;50.804;7.126;2022-09-09T15:39:25;21.60;99.90
33955;DHT22;20233;50.804;7.126;2022-09-09T15:44:17;20.00;99.90
33955;DHT22;20233;50.804;7.126;2022-09-09T15:46:52;20.30;99.90
33955;DHT22;20233;50.804;7.126;2022-09-09T15:49:25;20.40;99.90
33955;DHT22;20233;50.804;7.126;2022-09-09T15:51:53;20.40;99.90
33955;DHT22;20233;50.804;7.126;2022-09-09T15:54:20;20.40;99.90
33955;DHT22;20233;50.804;7.126;2022-09-09T15:56:51;20.50;99.90
33955;DHT22;20233;50.804;7.126;2022-09-09T15:59:17;20.60;99.90
33955;DHT22;20233;50.804;7.126;2022-09-09T16:01:42;20.40;99.90
33955;DHT22;20233;50.804;7.126;2022-09-09T16:04:09;20.40;99.90
33955;DHT22;20233;50.804;7.126;2022-09-09T16:06:35;20.40;99.90
33955;DHT22;20233;50.804;7.126;2022-09-09T16:09:04;20.20;99.90
33955;DHT22;20233;50.804;7.126;2022-09-09T16:11:32;20.20;99.90
33955;DHT22;20233;50.804;7.126;2022-09-09T16:13:58;20.20;99.90
33955;DHT22;20233;50.804;7.126;2022-09-09T16:16:27;20.20;99.90
33955;DHT22;20233;50.804;7.126;2022-09-09T16:18:55;20.20;99.90
33955;DHT22;20233;50.804;7.126;2022-09-09T16:21:27;20.10;99.90
33955;DHT22;20233;50.804;7.126;2022-09-09T16:23:58;20.10;99.90
33955;DHT22;20233;50.804;7.126;2022-09-09T16:26:28;19.90;99.90
33955;DHT22;20233;50.804;7.126;2022-09-09T16:28:55;19.80;99.90
33955;DHT22;20233;50.804;7.126;2022-09-09T16:31:23;19.90;99.90
33955;DHT22;20233;50.804;7.126;2022-09-09T16:33:49;19.90;99.90
33955;DHT22;20233;50.804;7.126;2022-09-09T16:36:18;20.00;99.90
33955;DHT22;20233;50.804;7.126;2022-09-09T16:38:43;20.00;99.90
33955;DHT22;20233;50.804;7.126;2022-09-09T16:41:11;20.00;99.90
33955;DHT22;20233;50.804;7.126;2022-09-09T16:43:37;19.90;99.90
33955;DHT22;20233;50.804;7.126;2022-09-09T16:46:08;20.00;99.90
33955;DHT22;20233;50.804;7.126;2022-09-09T16:48:36;20.00;99.90
33955;DHT22;20233;50.804;7.126;2022-09-09T16:51:07;20.00;99.90
33955;DHT22;20233;50.804;7.126;2022-09-09T16:53:34;19.90;99.90
33955;DHT22;20233;50.804;7.126;2022-09-09T16:56:11;19.80;99.90
33955;DHT22;20233;50.804;7.126;2022-09-09T16:58:36;19.90;99.90
33955;DHT22;20233;50.804;7.126;2022-09-09T17:01:03;19.90;99.90
33955;DHT22;20233;50.804;7.126;2022-09-09T17:03:29;19.90;99.90
33955;DHT22;20233;50.804;7.126;2022-09-09T17:05:55;19.90;99.90
33955;DHT22;20233;50.804;7.126;2022-09-09T17:08:26;19.90;99.90
33955;DHT22;20233;50.804;7.126;2022-09-09T17:10:51;19.90;99.90
33955;DHT22;20233;50.804;7.126;2022-09-09T17:13:17;19.80;99.90
33955;DHT22;20233;50.804;7.126;2022-09-09T17:15:45;19.70;99.90
33955;DHT22;20233;50.804;7.126;2022-09-09T17:18:12;19.70;99.90
33955;DHT22;20233;50.804;7.126;2022-09-09T17:20:41;19.70;99.90
33955;DHT22;20233;50.804;7.126;2022-09-09T17:23:08;19.70;99.90
33955;DHT22;20233;50.804;7.126;2022-09-09T17:25:34;19.70;99.90
33955;DHT22;20233;50.804;7.126;2022-09-09T17:28:00;19.70;99.90
33955;DHT22;20233;50.804;7.126;2022-09-09T17:30:27;19.60;99.90
33955;DHT22;20233;50.804;7.126;2022-09-09T17:32:53;19.50;99.90
33955;DHT22;20233;50.804;7.126;2022-09-09T17:35:18;19.50;99.90
33955;DHT22;20233;50.804;7.126;2022-09-09T17:37:44;19.50;99.90
33955;DHT22;20233;50.804;7.126;2022-09-09T17:40:10;19.40;99.90
33955;DHT22;20233;50.804;7.126;2022-09-09T17:42:36;19.40;99.90
33955;DHT22;20233;50.804;7.126;2022-09-09T17:45:01;19.40;99.90
33955;DHT22;20233;50.804;7.126;2022-09-09T17:47:27;19.30;99.90
33955;DHT22;20233;50.804;7.126;2022-09-09T17:49:54;19.40;99.90
33955;DHT22;20233;50.804;7.126;2022-09-09T17:52:19;19.50;99.90